Zim Panama — VSWW5 — position and weather

sailwx.info

Track history (hours):
 
Tides and Currents Weather Stations Pressure Air Temp Water Temp Dewpoint Dewpoint Depression Visibility Wind Speed Wind Dir Waves Ship Positions

Zim Panama

Last reported at 2016-Feb-06 19:33 UTC. Time now 2016-Feb-13 15:11 UTC.
Position N 01°50' E 102°30'.

Length 294.12 m; beam 32.2 m; draft 9.45 m.

Type: Ship (hazmat cat C). MMSI: 235474000.

Date/timePositionNaut miles runAvg speedWind from/ knotsBaromVisibWave heightAir tempDewpointWater temp
2016-Feb-06 19:33N 01°50' E 102°30'8216.1
2016-Feb-06 14:30N 01°15' E 103°43'3 1.5
2016-Feb-06 12:15N 01°16' E 103°46'0 0.0
2016-Feb-06 04:17N 01°16' E 103°46'0 0.0
2016-Feb-06 02:05N 01°16' E 103°46'0 0.0
2016-Feb-06 01:32N 01°16' E 103°46'0 0.0
2016-Feb-06 00:29N 01°16' E 103°46'0 0.0
2016-Feb-05 23:32N 01°16' E 103°46'0 0.0
2016-Feb-05 22:17N 01°16' E 103°46'0 0.0
2016-Feb-05 21:29N 01°16' E 103°46'0 0.0
2016-Feb-05 20:26N 01°16' E 103°46'0 0.0
2016-Feb-05 19:32N 01°16' E 103°46'0 0.0
2016-Feb-05 18:20N 01°16' E 103°46'0 0.6
2016-Feb-05 17:33N 01°16' E 103°46'7 7.2
2016-Feb-05 16:33N 01°13' E 103°53'9 8.8
2016-Feb-05 15:33N 01°16' E 104°02'  
2016-Jan-31 10:14S 31°49' E 115°31'1116.5
2016-Jan-31 09:33S 31°57' E 115°40'7 6.8
2016-Jan-31 08:33S 32°03' E 115°45'0 0.1
2016-Jan-31 07:32S 32°03' E 115°45'0 0.0
2016-Jan-31 06:32S 32°03' E 115°45'0 0.0
2016-Jan-31 05:32S 32°03' E 115°45'0 0.0
2016-Jan-31 04:32S 32°03' E 115°45'0 0.0
2016-Jan-31 03:32S 32°03' E 115°45'0 0.0
2016-Jan-31 02:32S 32°03' E 115°45'0 0.0
2016-Jan-31 01:32S 32°03' E 115°45'0 0.0
2016-Jan-31 00:32S 32°03' E 115°45'0 0.0
2016-Jan-30 23:32S 32°03' E 115°45'0 0.0
2016-Jan-30 22:32S 32°03' E 115°45'0 0.0
2016-Jan-30 21:32S 32°03' E 115°45'0 0.0
2016-Jan-30 20:32S 32°03' E 115°45'0 0.0
2016-Jan-30 19:32S 32°03' E 115°45'0 0.0
2016-Jan-30 18:32S 32°03' E 115°45'0 0.0
2016-Jan-30 17:32S 32°03' E 115°45'0 0.0
2016-Jan-30 16:29S 32°03' E 115°45'0 0.0
2016-Jan-30 15:28S 32°03' E 115°45'0 0.0
2016-Jan-30 14:31S 32°03' E 115°45'0 0.0
2016-Jan-30 13:31S 32°03' E 115°45'0 0.0
2016-Jan-30 12:31S 32°03' E 115°45'0 0.0
2016-Jan-30 11:31S 32°03' E 115°45'0 0.0
2016-Jan-30 10:34S 32°03' E 115°45'0 0.0
2016-Jan-30 09:31S 32°03' E 115°45'0 0.0
2016-Jan-30 08:34S 32°03' E 115°45'0 0.0
2016-Jan-30 07:33S 32°03' E 115°45'0 0.0
2016-Jan-30 06:30S 32°03' E 115°45'0 0.0
2016-Jan-30 05:33S 32°03' E 115°45'3 3.0
2016-Jan-30 04:34S 32°01' E 115°42'11 9.6
2016-Jan-30 03:27S 31°57' E 115°30'1411.5
2016-Jan-30 02:17S 32°07' E 115°20'  
Track history (hours):
 
Tides and Currents Weather Stations Pressure Air Temp Water Temp Dewpoint Dewpoint Depression Visibility Wind Speed Wind Dir Waves Ship Positions

Zim Panama

Last reported at 2016-Feb-06 19:33 UTC. Time now 2016-Feb-13 15:11 UTC.
Position N 01°50' E 102°30'.

Length 294.12 m; beam 32.2 m; draft 9.45 m.

Type: Ship (hazmat cat C). MMSI: 235474000.

Date/timePositionNaut miles runAvg speedWind from/ knotsBaromVisibWave heightAir tempDewpointWater temp
2016-Feb-06 19:33N 01°50' E 102°30'8216.1
2016-Feb-06 14:30N 01°15' E 103°43'3 1.5
2016-Feb-06 12:15N 01°16' E 103°46'0 0.0
2016-Feb-06 04:17N 01°16' E 103°46'0 0.0
2016-Feb-06 02:05N 01°16' E 103°46'0 0.0
2016-Feb-06 01:32N 01°16' E 103°46'0 0.0
2016-Feb-06 00:29N 01°16' E 103°46'0 0.0
2016-Feb-05 23:32N 01°16' E 103°46'0 0.0
2016-Feb-05 22:17N 01°16' E 103°46'0 0.0
2016-Feb-05 21:29N 01°16' E 103°46'0 0.0
2016-Feb-05 20:26N 01°16' E 103°46'0 0.0
2016-Feb-05 19:32N 01°16' E 103°46'0 0.0
2016-Feb-05 18:20N 01°16' E 103°46'0 0.6
2016-Feb-05 17:33N 01°16' E 103°46'7 7.2
2016-Feb-05 16:33N 01°13' E 103°53'9 8.8
2016-Feb-05 15:33N 01°16' E 104°02'  
2016-Jan-31 10:14S 31°49' E 115°31'1116.5
2016-Jan-31 09:33S 31°57' E 115°40'7 6.8
2016-Jan-31 08:33S 32°03' E 115°45'0 0.1
2016-Jan-31 07:32S 32°03' E 115°45'0 0.0
2016-Jan-31 06:32S 32°03' E 115°45'0 0.0
2016-Jan-31 05:32S 32°03' E 115°45'0 0.0
2016-Jan-31 04:32S 32°03' E 115°45'0 0.0
2016-Jan-31 03:32S 32°03' E 115°45'0 0.0
2016-Jan-31 02:32S 32°03' E 115°45'0 0.0
2016-Jan-31 01:32S 32°03' E 115°45'0 0.0
2016-Jan-31 00:32S 32°03' E 115°45'0 0.0
2016-Jan-30 23:32S 32°03' E 115°45'0 0.0
2016-Jan-30 22:32S 32°03' E 115°45'0 0.0
2016-Jan-30 21:32S 32°03' E 115°45'0 0.0
2016-Jan-30 20:32S 32°03' E 115°45'0 0.0
2016-Jan-30 19:32S 32°03' E 115°45'0 0.0
2016-Jan-30 18:32S 32°03' E 115°45'0 0.0
2016-Jan-30 17:32S 32°03' E 115°45'0 0.0
2016-Jan-30 16:29S 32°03' E 115°45'0 0.0
2016-Jan-30 15:28S 32°03' E 115°45'0 0.0
2016-Jan-30 14:31S 32°03' E 115°45'0 0.0
2016-Jan-30 13:31S 32°03' E 115°45'0 0.0
2016-Jan-30 12:31S 32°03' E 115°45'0 0.0
2016-Jan-30 11:31S 32°03' E 115°45'0 0.0
2016-Jan-30 10:34S 32°03' E 115°45'0 0.0
2016-Jan-30 09:31S 32°03' E 115°45'0 0.0
2016-Jan-30 08:34S 32°03' E 115°45'0 0.0
2016-Jan-30 07:33S 32°03' E 115°45'0 0.0
2016-Jan-30 06:30S 32°03' E 115°45'0 0.0
2016-Jan-30 05:33S 32°03' E 115°45'3 3.0
2016-Jan-30 04:34S 32°01' E 115°42'11 9.6
2016-Jan-30 03:27S 31°57' E 115°30'1411.5
2016-Jan-30 02:17S 32°07' E 115°20'  

Dump ship's entire track history